createdAt,value
2023-09-20T00:01:47.982Z,48.32
2023-09-20T00:05:50.581Z,48.17
2023-09-20T00:09:51.914Z,48.99
2023-09-20T00:13:54.021Z,49.13
2023-09-20T00:17:55.607Z,48.88
2023-09-20T00:21:57.055Z,49.10
2023-09-20T00:25:58.677Z,49.94
2023-09-20T00:30:00.047Z,49.46
2023-09-20T00:34:04.603Z,50.86
2023-09-20T00:38:06.833Z,50.49
2023-09-20T00:42:08.266Z,50.90
2023-09-20T00:46:12.607Z,50.70
2023-09-20T00:50:15.965Z,50.85
2023-09-20T00:54:17.985Z,50.85
2023-09-20T00:58:20.732Z,51.11
2023-09-20T01:02:22.718Z,51.65
2023-09-20T01:06:27.911Z,50.90
2023-09-20T01:10:32.668Z,51.21
2023-09-20T01:14:34.231Z,51.06
2023-09-20T01:18:35.733Z,51.29
2023-09-20T01:22:37.154Z,50.84
2023-09-20T01:26:40.665Z,51.65
2023-09-20T01:30:43.149Z,52.03
2023-09-20T01:34:46.440Z,51.65
2023-09-20T01:38:47.753Z,51.69
2023-09-20T01:42:49.620Z,51.86
2023-09-20T01:46:52.203Z,51.37
2023-09-20T01:50:53.859Z,52.05
2023-09-20T01:54:58.294Z,52.11
2023-09-20T01:59:00.808Z,52.40
2023-09-20T02:03:07.473Z,52.15
2023-09-20T02:07:10.944Z,52.42
2023-09-20T02:11:12.711Z,52.68
2023-09-20T02:15:15.474Z,52.89
2023-09-20T02:19:20.630Z,54.05
2023-09-20T02:23:22.056Z,53.84
2023-09-20T02:27:23.607Z,54.29
2023-09-20T02:31:24.930Z,54.18
2023-09-20T02:35:27.801Z,54.29
2023-09-20T02:39:29.203Z,54.55
2023-09-20T02:43:31.227Z,54.60
2023-09-20T02:47:32.664Z,55.37
2023-09-20T02:51:36.631Z,55.13
2023-09-20T02:55:40.164Z,55.29
2023-09-20T02:59:41.700Z,55.08
2023-09-20T03:03:43.141Z,55.08
2023-09-20T03:07:45.596Z,55.04
2023-09-20T03:11:46.932Z,54.43
2023-09-20T03:15:49.167Z,55.51
2023-09-20T03:19:54.773Z,55.00
2023-09-20T03:23:57.047Z,55.72
2023-09-20T03:27:58.455Z,56.08
2023-09-20T03:32:01.703Z,56.12
2023-09-20T03:36:11.594Z,56.40
2023-09-20T03:40:17.884Z,56.03
2023-09-20T03:44:20.624Z,56.02
2023-09-20T03:48:22.131Z,55.53
2023-09-20T03:52:23.561Z,55.40
2023-09-20T03:56:25.079Z,56.21
2023-09-20T04:00:29.376Z,56.64
2023-09-20T04:04:31.181Z,56.74
2023-09-20T04:08:32.631Z,57.21
2023-09-20T04:12:34.863Z,56.71
2023-09-20T04:16:37.331Z,56.90
2023-09-20T04:20:39.869Z,56.94
2023-09-20T04:24:41.901Z,57.04
2023-09-20T04:28:43.703Z,57.46
2023-09-20T04:32:45.317Z,57.18
2023-09-20T04:36:53.834Z,57.32
2023-09-20T04:40:57.891Z,57.09
2023-09-20T04:45:00.226Z,57.14
2023-09-20T04:49:01.971Z,56.61
2023-09-20T04:53:03.534Z,56.59
2023-09-20T04:57:07.997Z,56.42
2023-09-20T05:01:16.031Z,56.59
2023-09-20T05:05:17.458Z,57.81
2023-09-20T05:09:18.893Z,57.22
2023-09-20T05:13:20.225Z,56.23
2023-09-20T05:17:21.651Z,56.41
2023-09-20T05:21:22.987Z,56.28
2023-09-20T05:25:24.390Z,57.08
2023-09-20T05:29:26.727Z,56.98
2023-09-20T05:33:28.278Z,56.60
2023-09-20T05:37:29.769Z,55.79
2023-09-20T05:41:31.177Z,56.18
2023-09-20T05:45:32.577Z,56.13
2023-09-20T05:49:34.232Z,55.61
2023-09-20T05:53:35.635Z,55.77
2023-09-20T05:57:37.189Z,56.04
2023-09-20T06:01:41.393Z,55.91
2023-09-20T06:05:42.862Z,56.52
2023-09-20T06:09:44.655Z,56.75
2023-09-20T06:13:46.094Z,56.76
2023-09-20T06:17:50.608Z,56.74
2023-09-20T06:21:53.437Z,56.28
2023-09-20T06:25:54.800Z,56.26
2023-09-20T06:29:56.179Z,55.81
2023-09-20T06:33:57.549Z,56.00
2023-09-20T06:37:59.971Z,55.88
2023-09-20T06:42:01.414Z,54.96
2023-09-20T06:46:04.408Z,55.40
2023-09-20T06:50:06.244Z,56.48
2023-09-20T06:54:09.666Z,55.66
2023-09-20T06:58:19.699Z,55.53
2023-09-20T07:02:25.451Z,55.81
2023-09-20T07:06:27.871Z,54.28
2023-09-20T07:10:31.013Z,54.79
2023-09-20T07:14:32.792Z,54.52
2023-09-20T07:18:34.680Z,54.19
2023-09-20T07:22:39.601Z,52.79
2023-09-20T07:26:44.688Z,53.01
2023-09-20T07:30:46.884Z,51.53
2023-09-20T07:34:49.420Z,52.06
2023-09-20T07:38:50.916Z,51.60
2023-09-20T07:42:53.114Z,52.19
2023-09-20T07:46:54.505Z,51.01
2023-09-20T07:50:55.921Z,52.55
2023-09-20T07:54:57.748Z,50.78
2023-09-20T07:58:59.180Z,51.45
2023-09-20T08:03:00.618Z,51.11
2023-09-20T08:07:02.522Z,50.95
2023-09-20T08:11:13.125Z,51.75
2023-09-20T08:15:15.334Z,50.13
2023-09-20T08:19:16.726Z,49.61
2023-09-20T08:23:36.529Z,50.15
2023-09-20T08:27:56.293Z,49.99
2023-09-20T08:32:16.232Z,50.09
2023-09-20T08:36:36.069Z,50.11
2023-09-20T08:40:56.269Z,48.17
2023-09-20T08:45:19.810Z,46.39
2023-09-20T08:49:41.588Z,45.80
2023-09-20T08:54:02.907Z,46.50
2023-09-20T08:58:23.199Z,46.19
2023-09-20T09:02:32.101Z,46.90
2023-09-20T09:06:33.812Z,47.91
2023-09-20T09:10:35.264Z,46.05
2023-09-20T09:14:41.057Z,45.31
2023-09-20T09:18:44.595Z,45.22
2023-09-20T09:22:46.866Z,42.72
2023-09-20T09:26:49.005Z,38.68
2023-09-20T09:30:51.329Z,40.55
2023-09-20T09:34:53.119Z,38.92
2023-09-20T09:39:24.189Z,36.69
2023-09-20T09:43:31.118Z,33.42
2023-09-20T09:47:35.355Z,36.99
2023-09-20T09:51:57.248Z,34.70
2023-09-20T09:56:02.593Z,32.01
2023-09-20T10:00:06.448Z,33.90
2023-09-20T10:04:12.048Z,35.20
2023-09-20T10:08:15.586Z,33.22
2023-09-20T10:12:18.988Z,33.48
2023-09-20T10:16:21.427Z,35.24
2023-09-20T10:20:23.890Z,34.71
2023-09-20T10:24:29.867Z,35.34
2023-09-20T10:28:40.375Z,34.21
2023-09-20T10:32:45.433Z,35.54
2023-09-20T10:36:52.662Z,34.63
2023-09-20T10:41:00.998Z,32.96
2023-09-20T10:45:06.400Z,31.43
2023-09-20T10:49:08.127Z,31.11
2023-09-20T10:53:11.611Z,32.82
2023-09-20T10:57:23.514Z,34.38
2023-09-20T11:01:25.013Z,34.51
2023-09-20T11:05:30.102Z,35.97
2023-09-20T11:09:41.089Z,34.73
2023-09-20T11:13:48.027Z,32.46
2023-09-20T11:17:49.560Z,31.79
2023-09-20T11:21:52.792Z,33.41
2023-09-20T11:25:56.959Z,33.07
2023-09-20T11:30:09.664Z,32.07
2023-09-20T11:34:11.250Z,33.79
2023-09-20T11:38:12.821Z,33.61
2023-09-20T11:42:26.138Z,33.46
2023-09-20T11:46:34.654Z,31.33
2023-09-20T11:50:43.472Z,30.62
2023-09-20T11:54:44.982Z,29.83
2023-09-20T11:58:48.128Z,29.97
2023-09-20T12:02:50.872Z,30.90
2023-09-20T12:06:54.100Z,33.45
2023-09-20T12:10:55.451Z,33.45
2023-09-20T12:14:56.936Z,33.93
2023-09-20T12:19:00.289Z,33.15
2023-09-20T12:23:03.638Z,33.71
2023-09-20T12:27:06.279Z,34.12
2023-09-20T12:31:07.901Z,34.15
2023-09-20T12:35:11.760Z,34.21
2023-09-20T12:39:13.959Z,33.50
2023-09-20T12:43:18.902Z,35.79
2023-09-20T12:47:20.909Z,34.39
2023-09-20T12:51:22.500Z,35.29
2023-09-20T12:55:26.553Z,35.21
2023-09-20T12:59:28.487Z,34.29
2023-09-20T13:03:30.585Z,34.69
2023-09-20T13:07:32.115Z,34.41
2023-09-20T13:11:33.582Z,35.02
2023-09-20T13:15:35.947Z,35.03
2023-09-20T13:19:37.462Z,35.20
2023-09-20T13:23:39.132Z,35.79
2023-09-20T13:27:40.697Z,35.54
2023-09-20T13:31:42.204Z,35.37
2023-09-20T13:35:43.997Z,35.25
2023-09-20T13:39:45.488Z,36.36
2023-09-20T13:43:46.833Z,37.75
2023-09-20T13:47:50.639Z,35.96
2023-09-20T13:51:53.076Z,36.36
2023-09-20T13:56:03.611Z,35.85
2023-09-20T14:00:12.566Z,34.62
2023-09-20T14:04:14.035Z,34.23
2023-09-20T14:08:15.535Z,35.73
2023-09-20T14:12:16.857Z,35.30
2023-09-20T14:16:18.477Z,35.41
2023-09-20T14:20:22.445Z,34.46
2023-09-20T14:24:26.213Z,35.14
2023-09-20T14:28:27.605Z,34.76
2023-09-20T14:32:30.032Z,36.09
2023-09-20T14:36:31.436Z,35.65
2023-09-20T14:40:34.092Z,36.62
2023-09-20T14:44:35.664Z,36.05
2023-09-20T14:48:38.416Z,36.47
2023-09-20T14:52:41.305Z,35.06
2023-09-20T14:56:44.600Z,34.37
2023-09-20T15:00:46.009Z,33.60
2023-09-20T15:04:48.253Z,34.04
2023-09-20T15:08:50.374Z,32.97
2023-09-20T15:13:00.657Z,33.98
2023-09-20T15:17:03.293Z,33.47
2023-09-20T15:21:08.453Z,34.12
2023-09-20T15:25:11.449Z,34.44
2023-09-20T15:29:17.970Z,34.08
2023-09-20T15:33:23.669Z,34.93
2023-09-20T15:37:27.314Z,34.98
2023-09-20T15:41:28.780Z,35.15
2023-09-20T15:45:30.740Z,35.57
2023-09-20T15:49:32.994Z,35.53
2023-09-20T15:53:34.596Z,35.51
2023-09-20T15:57:37.263Z,35.47
2023-09-20T16:01:38.701Z,34.82
2023-09-20T16:05:40.068Z,36.58
2023-09-20T16:09:41.545Z,36.31
2023-09-20T16:13:43.107Z,35.63
2023-09-20T16:17:44.763Z,35.94
2023-09-20T16:21:46.952Z,36.77
2023-09-20T16:25:48.363Z,36.24
2023-09-20T16:29:51.070Z,35.95
2023-09-20T16:33:54.882Z,36.18
2023-09-20T16:37:56.380Z,36.46
2023-09-20T16:42:01.185Z,36.62
2023-09-20T16:46:02.797Z,37.30
2023-09-20T16:50:04.544Z,36.47
2023-09-20T16:54:06.087Z,37.22
2023-09-20T16:58:07.727Z,37.00
2023-09-20T17:02:10.847Z,37.42
2023-09-20T17:06:12.579Z,37.17
2023-09-20T17:10:16.983Z,37.56
2023-09-20T17:14:19.857Z,37.44
2023-09-20T17:18:22.960Z,37.76
2023-09-20T17:22:24.534Z,38.31
2023-09-20T17:26:26.073Z,38.93
2023-09-20T17:30:27.500Z,39.00
2023-09-20T17:34:29.975Z,38.99
2023-09-20T17:38:31.361Z,39.93
2023-09-20T17:42:34.302Z,39.68
2023-09-20T17:46:36.453Z,39.60
2023-09-20T17:50:39.415Z,39.98
2023-09-20T17:54:41.745Z,39.88
2023-09-20T17:58:43.123Z,40.94
2023-09-20T18:02:44.653Z,40.84
2023-09-20T18:06:46.166Z,41.12
2023-09-20T18:10:50.088Z,41.20
2023-09-20T18:14:51.612Z,41.28
2023-09-20T18:18:55.115Z,41.47
2023-09-20T18:22:56.742Z,41.54
2023-09-20T18:26:58.613Z,41.84
2023-09-20T18:31:01.271Z,42.11
2023-09-20T18:35:02.669Z,41.90
2023-09-20T18:39:04.431Z,41.87
2023-09-20T18:43:05.862Z,41.74
2023-09-20T18:47:12.835Z,41.88
2023-09-20T18:51:16.958Z,41.54
2023-09-20T18:55:18.453Z,42.23
2023-09-20T18:59:19.976Z,42.74
2023-09-20T19:03:23.914Z,42.78
2023-09-20T19:07:25.339Z,42.99
2023-09-20T19:11:27.371Z,43.27
2023-09-20T19:15:29.355Z,43.21
2023-09-20T19:19:30.737Z,43.13
2023-09-20T19:23:32.304Z,44.10
2023-09-20T19:27:34.008Z,43.87
2023-09-20T19:31:35.464Z,44.18
2023-09-20T19:35:38.527Z,44.63
2023-09-20T19:39:40.039Z,44.83
2023-09-20T19:43:42.928Z,45.03
2023-09-20T19:47:45.718Z,44.76
2023-09-20T19:51:47.967Z,44.68
2023-09-20T19:55:49.555Z,45.18
2023-09-20T19:59:50.898Z,44.80
2023-09-20T20:03:52.461Z,44.99
2023-09-20T20:07:59.586Z,45.42
2023-09-20T20:12:02.641Z,45.36
2023-09-20T20:16:04.228Z,45.79
2023-09-20T20:20:28.125Z,45.95
2023-09-20T20:24:31.471Z,46.08
2023-09-20T20:28:38.738Z,46.05
2023-09-20T20:32:41.798Z,46.45
2023-09-20T20:36:43.902Z,46.54
2023-09-20T20:40:48.116Z,46.38
2023-09-20T20:44:49.475Z,46.88
2023-09-20T20:48:52.503Z,47.34
2023-09-20T20:52:54.572Z,47.28
2023-09-20T20:56:56.012Z,47.13
2023-09-20T21:00:57.620Z,47.33
2023-09-20T21:04:59.019Z,47.21
2023-09-20T21:09:00.491Z,47.20
2023-09-20T21:13:05.096Z,47.54
2023-09-20T21:17:06.495Z,46.84
2023-09-20T21:21:08.513Z,47.22
2023-09-20T21:25:13.108Z,46.91
2023-09-20T21:29:14.496Z,47.40
2023-09-20T21:33:17.569Z,47.43
2023-09-20T21:37:20.089Z,47.56
2023-09-20T21:41:21.451Z,47.94
2023-09-20T21:45:23.329Z,48.00
2023-09-20T21:49:25.246Z,47.84
2023-09-20T21:53:26.644Z,48.30
2023-09-20T21:57:28.264Z,48.38
2023-09-20T22:01:29.678Z,48.32
2023-09-20T22:05:33.416Z,47.97
2023-09-20T22:09:37.569Z,47.94
2023-09-20T22:13:39.306Z,47.89
2023-09-20T22:17:43.976Z,47.82
2023-09-20T22:21:49.170Z,47.72
2023-09-20T22:25:50.778Z,46.76
2023-09-20T22:29:52.273Z,46.62
2023-09-20T22:33:54.179Z,46.73
2023-09-20T22:37:58.910Z,45.93
2023-09-20T22:42:00.343Z,45.82
2023-09-20T22:46:02.002Z,46.50
2023-09-20T22:50:05.728Z,46.35
2023-09-20T22:54:12.321Z,46.14
2023-09-20T22:58:15.524Z,46.59
2023-09-20T23:02:16.931Z,46.11
2023-09-20T23:06:19.732Z,46.33
2023-09-20T23:10:25.295Z,46.88
2023-09-20T23:14:26.755Z,47.21
2023-09-20T23:18:29.204Z,47.45
2023-09-20T23:22:32.773Z,47.41
2023-09-20T23:26:37.399Z,46.95
2023-09-20T23:30:45.918Z,47.02
2023-09-20T23:34:47.473Z,47.60
2023-09-20T23:38:49.578Z,47.31
2023-09-20T23:42:57.117Z,47.37
2023-09-20T23:46:58.967Z,46.98
2023-09-20T23:51:07.566Z,47.97
2023-09-20T23:55:12.718Z,47.10
2023-09-20T23:59:14.769Z,47.45
